Terminal Aerodrome Forecast
Issued by NWS

Home | Current Version | Previous Version | Text Only | Print | Product List | Glossary On
Versions: 1 2 3 4 5 6 7 8 9 10 11 12 13 14 15 16 17 18 19 20 21 22 23 24 25 26 27 28 29 30 31 32 33 34 35 36
000
FTUS41 KCTP 152338
TAFUNV
TAF
KUNV 152338Z 1600/1624 25012KT P6SM VCSH SCT025 OVC040
      TEMPO 1603/1607 3SM -SHSN BKN025 OVC035
     FM161000 25010G17KT P6SM VCSH OVC040
     FM161400 27012G22KT P6SM BKN040=

USA.gov is the U.S. government's official web portal to all federal, state and local government web resources and services.